Creede, CO

2:47 PM MDT on August 27, 2015 (GMT -0600)
Rivercrest Acres | | Change Station
CLOSE
Current Station
Personal Weather Station
Location: Creede, CO
Elevation: 8800 ft
Nearby Weather Stations

Elev 8800 ft 37.81 °N, 106.96 °W | Updated 5 minutes ago

Overcast
Overcast
66.9 °F
Feels Like 66.9 °F
N
10.0
Wind Variable Wind from South
Gusts 13.0 mph

Today
High -- | Low -- °F
--% Chance of Precip.
Yesterday
High -- | Low -- °F
Precip. -- in
6:33 AM 7:44 PM
Waxing Gibbous, 95% visible
Pressure 30.40 in
Visibility 10.0 miles
Clouds Scattered Clouds 1500 ft
Scattered Clouds 4000 ft
Scattered Clouds 6000 ft
Dew Point 45 °F
Humidity 45%
Rainfall 0.07 in
Snow Depth Not available.
UV 8 out of 12
Pollen 10.30 out of 12
Air Quality Not available.
Flu Activity Not available.
METAR KPSO 272035Z AUTO 00000KT 10SM VCTS SCT015 SCT040 SCT060 16/13 A3040 RMK AO2 LTG DSNT W T01550128
Pressure 30.40 in
Visibility 10.0 miles
Clouds Scattered Clouds 1500 ft
Scattered Clouds 4000 ft
Scattered Clouds 6000 ft
Dew Point 45 °F
Humidity 45%
Rainfall 0.07 in
Snow Depth Not available.
UV 8 out of 12
Pollen 10.30 out of 12
Air Quality Not available.
Flu Activity Not available.
METAR KPSO 272035Z AUTO 00000KT 10SM VCTS SCT015 SCT040 SCT060 16/13 A3040 RMK AO2 LTG DSNT W T01550128

10-Day Weather Forecast

×

Almanac

Astronomy

Aug. 27, 2015 Rise Set
Actual Time
Civil Twilight
Nautical Twilight
Astronomical Twilight
Moon
Length of Visible Light
Length of Day
Tomorrow will be .
, % of the Moon is Illuminated

Today's Extremes

State Highs State Lows

Community

WunderPhotos

Upload Photos

1,850,212 photos uploaded!

WunderBlogs® & News

Nearby

Air Quality

  Air Quality AQ Index Pollutant
Not available.

Snow Depth

Station Depth Elevation

Earthquake Activity

City Distance Mag. Time & Date
Minimum magnitude displayed is 2.5.

Coastal Water Temperatures

Place Temperature

Stations

Nearby Weather Stations

Station Location Temp. Windchill Dew Point Humidity Wind Precip. Elev Updated Type